Time;durP1;ratioP1;P1;durP2;ratioP2;P2;SDS_P1;SDS_P2;PMS_P1;PMS_P2;Temp;Humidity;BMP_temperature;BMP_pressure;BME280_temperature;BME280_humidity;BME280_pressure;Samples;Min_cycle;Max_cycle;Signal;HPM_P1;HPM_P2
2023/07/02 00:00:09;;;;;;;11.55;2.95;;;;;;;19.07;100.00;99175.09;5044823;28;20029;-67
2023/07/02 00:02:35;;;;;;;14.32;2.53;;;;;;;19.08;100.00;99174.81;5062832;28;20020;-67
2023/07/02 00:05:01;;;;;;;8.75;2.50;;;;;;;19.12;100.00;99166.84;5045367;28;20040;-68
2023/07/02 00:07:27;;;;;;;9.05;2.83;;;;;;;19.10;100.00;99169.84;5061914;28;20021;-68
2023/07/02 00:09:53;;;;;;;10.05;2.75;;;;;;;19.06;100.00;99171.56;5054095;28;20028;-68
2023/07/02 00:12:19;;;;;;;9.38;2.67;;;;;;;18.76;100.00;99116.38;5043814;28;20024;-68
2023/07/02 00:14:44;;;;;;;10.55;2.33;;;;;;;19.02;100.00;99156.91;5062138;28;20035;-68
2023/07/02 00:17:13;;;;;;;12.35;2.40;;;;;;;19.04;100.00;99162.03;5058364;28;20039;-68
2023/07/02 00:19:41;;;;;;;8.75;2.53;;;;;;;18.94;100.00;99138.47;5059320;28;20443;-68
2023/07/02 00:22:08;;;;;;;8.93;2.17;;;;;;;19.08;100.00;99160.38;5058590;28;20041;-67
2023/07/02 00:24:33;;;;;;;7.80;2.53;;;;;;;19.05;100.00;99167.22;5041074;28;20028;-68
2023/07/02 00:26:59;;;;;;;10.20;2.45;;;;;;;19.08;100.00;99154.91;5058479;28;20024;-68
2023/07/02 00:29:24;;;;;;;8.70;2.50;;;;;;;19.08;100.00;99158.44;5041225;28;20051;-67
2023/07/02 00:31:49;;;;;;;9.10;2.83;;;;;;;19.09;100.00;99156.53;5058703;28;20021;-68
2023/07/02 00:34:15;;;;;;;7.30;2.53;;;;;;;19.14;100.00;99148.25;5040378;28;20045;-68
2023/07/02 00:36:41;;;;;;;8.27;2.92;;;;;;;19.17;100.00;99148.50;5041290;28;20040;-68
2023/07/02 00:39:07;;;;;;;14.07;3.50;;;;;;;19.15;100.00;99142.53;5058737;28;20043;-68
2023/07/02 00:41:32;;;;;;;9.00;2.30;;;;;;;19.14;100.00;99149.09;5037950;28;20123;-68
2023/07/02 00:43:58;;;;;;;12.23;2.30;;;;;;;19.15;100.00;99147.16;5055892;28;20103;-68
2023/07/02 00:46:25;;;;;;;14.23;2.53;;;;;;;19.08;100.00;99133.09;5057571;28;20033;-68
2023/07/02 00:48:52;;;;;;;9.70;2.45;;;;;;;19.18;100.00;99143.84;5038377;28;20036;-69
2023/07/02 00:51:22;;;;;;;10.25;2.50;;;;;;;19.19;100.00;99137.28;5059943;28;20025;-69
2023/07/02 00:53:49;;;;;;;10.20;2.50;;;;;;;19.17;100.00;99131.31;5040758;28;20025;-68
2023/07/02 00:56:15;;;;;;;11.00;2.75;;;;;;;19.18;100.00;99127.50;5043820;28;20025;-68
2023/07/02 00:58:48;;;;;;;9.70;2.45;;;;;;;18.86;100.00;99085.44;5056404;28;20048;-68
2023/07/02 01:01:18;;;;;;;11.65;2.67;;;;;;;19.10;100.00;99126.22;5041626;28;20496;-68
2023/07/02 01:03:53;;;;;;;12.00;2.47;;;;;;;19.10;100.00;99120.78;5042713;28;20033;-68
2023/07/02 01:06:24;;;;;;;14.38;2.50;;;;;;;19.07;100.00;99123.28;5041303;28;20128;-68
2023/07/02 01:09:00;;;;;;;14.40;2.83;;;;;;;18.95;100.00;99104.69;5040942;28;20094;-67
2023/07/02 01:11:29;;;;;;;10.90;3.20;;;;;;;19.14;100.00;99115.53;5058540;28;20021;-67
2023/07/02 01:14:13;;;;;;;14.35;3.17;;;;;;;19.10;100.00;99117.25;5058523;28;20024;-68
2023/07/02 01:16:43;;;;;;;14.27;2.93;;;;;;;19.04;100.00;99110.25;5058565;28;20051;-68
2023/07/02 01:19:13;;;;;;;14.20;2.88;;;;;;;19.06;100.00;99113.50;5058896;28;20120;-68
2023/07/02 01:21:39;;;;;;;15.35;3.00;;;;;;;18.96;100.00;99095.38;5058118;28;20059;-68
2023/07/02 01:24:05;;;;;;;13.13;2.58;;;;;;;19.07;100.00;99104.22;5057281;28;20025;-68
2023/07/02 01:26:33;;;;;;;19.08;3.13;;;;;;;19.11;100.00;99105.25;5057795;28;20028;-68
2023/07/02 01:29:00;;;;;;;13.75;2.72;;;;;;;19.15;100.00;99104.34;5039729;28;20028;-68
2023/07/02 01:31:25;;;;;;;11.70;2.28;;;;;;;19.11;100.00;99100.59;5057570;28;20028;-68
2023/07/02 01:33:52;;;;;;;13.27;2.80;;;;;;;19.12;100.00;99091.31;5039608;28;20377;-67
2023/07/02 01:36:18;;;;;;;11.27;2.55;;;;;;;18.89;100.00;99057.59;5056542;28;20059;-68
2023/07/02 01:38:43;;;;;;;13.43;2.85;;;;;;;19.05;100.00;99088.16;5039321;28;20492;-67
2023/07/02 01:41:08;;;;;;;9.93;2.38;;;;;;;18.78;100.00;99054.22;5057277;28;20388;-68
2023/07/02 01:43:34;;;;;;;11.10;1.98;;;;;;;18.95;100.00;99099.22;5056742;28;20061;-68
2023/07/02 01:46:01;;;;;;;12.90;2.38;;;;;;;18.95;100.00;99093.78;5041634;28;20476;-68
2023/07/02 01:48:27;;;;;;;12.80;2.75;;;;;;;18.88;100.00;99075.06;5053951;28;20037;-68
2023/07/02 01:50:52;;;;;;;10.02;2.20;;;;;;;18.99;100.00;99086.63;5045591;28;20025;-71
2023/07/02 01:53:17;;;;;;;10.30;2.50;;;;;;;19.00;100.00;99082.78;5060389;28;20032;-69
2023/07/02 01:55:43;;;;;;;8.30;2.20;;;;;;;19.00;100.00;99086.31;5057610;28;20033;-67
2023/07/02 01:58:09;;;;;;;16.75;2.75;;;;;;;18.88;100.00;99090.63;5023613;28;20036;-67
2023/07/02 02:00:34;;;;;;;8.23;2.30;;;;;;;19.00;100.00;99083.56;5056975;28;20114;-68
2023/07/02 02:02:59;;;;;;;7.90;1.88;;;;;;;18.97;100.00;99083.38;5057794;28;20036;-68
2023/07/02 02:05:25;;;;;;;11.05;2.15;;;;;;;18.92;100.00;99081.53;5057874;28;20021;-68
2023/07/02 02:07:50;;;;;;;5.65;1.95;;;;;;;18.97;100.00;99083.38;5056629;28;20025;-68
2023/07/02 02:10:16;;;;;;;7.75;1.70;;;;;;;18.97;100.00;99089.66;5039571;28;20020;-67
2023/07/02 02:12:41;;;;;;;7.93;1.65;;;;;;;18.71;100.00;99078.28;5055459;28;20067;-68
2023/07/02 02:15:07;;;;;;;11.70;2.28;;;;;;;18.70;100.00;99076.66;5055380;28;20024;-68
2023/07/02 02:17:33;;;;;;;4.75;1.77;;;;;;;18.59;100.00;99077.91;5058429;28;20086;-68
2023/07/02 02:19:59;;;;;;;7.63;1.83;;;;;;;18.64;100.00;99075.13;5039950;28;20041;-68
2023/07/02 02:22:24;;;;;;;5.65;1.55;;;;;;;18.70;100.00;99078.56;5058355;28;20024;-68
2023/07/02 02:24:50;;;;;;;9.07;2.30;;;;;;;18.60;100.00;99076.81;5056791;28;20036;-68
2023/07/02 02:27:15;;;;;;;8.75;2.00;;;;;;;18.66;100.00;99077.53;5039788;28;20283;-68
2023/07/02 02:29:40;;;;;;;4.32;1.77;;;;;;;18.72;100.00;99070.94;5060447;28;20033;-68
2023/07/02 02:32:06;;;;;;;7.75;2.30;;;;;;;18.66;100.00;99067.44;5060955;28;20092;-68
2023/07/02 02:34:32;;;;;;;9.10;2.08;;;;;;;18.75;100.00;99076.63;5043025;28;20530;-71
2023/07/02 02:36:57;;;;;;;9.82;2.20;;;;;;;18.75;100.00;99078.53;5057930;28;20029;-71
2023/07/02 02:39:23;;;;;;;7.95;2.00;;;;;;;18.59;100.00;99071.66;5061622;28;20404;-68
2023/07/02 02:41:48;;;;;;;6.22;2.03;;;;;;;18.60;100.00;99070.53;5061876;28;20059;-68
2023/07/02 02:44:14;;;;;;;10.05;2.08;;;;;;;18.56;100.00;99073.06;5062156;28;20500;-71
2023/07/02 02:46:39;;;;;;;9.63;2.10;;;;;;;18.51;100.00;99070.41;5066242;28;20028;-68
2023/07/02 02:49:04;;;;;;;7.75;1.98;;;;;;;18.58;100.00;99081.75;5052711;28;20032;-67
2023/07/02 02:51:30;;;;;;;9.00;2.17;;;;;;;18.60;100.00;99082.25;5068512;28;20120;-68
2023/07/02 02:53:55;;;;;;;9.70;1.80;;;;;;;18.69;100.00;99072.31;5064971;28;20024;-71
2023/07/02 02:56:21;;;;;;;7.97;1.95;;;;;;;18.57;100.00;99069.22;5044831;28;20036;-70
2023/07/02 02:58:46;;;;;;;9.35;2.00;;;;;;;18.55;100.00;99080.41;5062107;28;20029;-68
2023/07/02 03:01:12;;;;;;;9.15;1.98;;;;;;;18.53;100.00;99079.88;5063089;28;20132;-69
2023/07/02 03:03:44;;;;;;;10.25;2.25;;;;;;;18.50;100.00;99077.75;5045296;28;20036;-68
2023/07/02 03:06:11;;;;;;;11.80;2.00;;;;;;;18.45;100.00;99082.47;5043182;28;20031;-68
2023/07/02 03:08:37;;;;;;;11.18;2.10;;;;;;;18.42;100.00;99078.41;5044183;28;20039;-68
2023/07/02 03:11:02;;;;;;;9.25;1.85;;;;;;;18.47;100.00;99077.53;5062663;28;20028;-69
2023/07/02 03:13:28;;;;;;;11.88;2.15;;;;;;;18.53;100.00;99073.63;5062708;28;20470;-68
2023/07/02 03:15:53;;;;;;;13.07;2.38;;;;;;;18.54;100.00;99072.53;5061635;28;20037;-68
2023/07/02 03:18:19;;;;;;;9.68;2.20;;;;;;;18.48;100.00;99055.47;5061445;28;20029;-68
2023/07/02 03:20:44;;;;;;;8.25;2.30;;;;;;;18.53;100.00;99060.03;5044822;28;20119;-68
2023/07/02 03:23:10;;;;;;;10.32;2.05;;;;;;;18.50;100.00;99079.66;5062491;28;20376;-68
2023/07/02 03:25:35;;;;;;;7.82;1.77;;;;;;;18.52;100.00;99072.03;5060702;28;20105;-68
2023/07/02 03:28:01;;;;;;;12.90;2.50;;;;;;;18.54;100.00;99073.34;5027474;28;20021;-68
2023/07/02 03:30:26;;;;;;;14.50;2.28;;;;;;;18.50;100.00;99074.22;5061577;28;20032;-68
2023/07/02 03:32:52;;;;;;;11.45;1.70;;;;;;;18.59;100.00;99067.03;5041886;28;20037;-68
2023/07/02 03:35:17;;;;;;;11.13;1.83;;;;;;;18.39;100.00;99073.56;5058972;28;20124;-68
2023/07/02 03:37:43;;;;;;;6.35;1.92;;;;;;;18.47;100.00;99072.88;5058564;28;20088;-68
2023/07/02 03:40:09;;;;;;;9.23;1.70;;;;;;;18.40;100.00;99075.16;5059007;28;20033;-68
2023/07/02 03:42:34;;;;;;;9.57;1.70;;;;;;;18.47;100.00;99081.06;5059748;28;20070;-68
2023/07/02 03:45:00;;;;;;;11.00;1.95;;;;;;;18.47;100.00;99077.53;5060394;28;20045;-68
2023/07/02 03:47:25;;;;;;;10.52;1.80;;;;;;;18.46;100.00;99074.00;5044048;28;20053;-68
2023/07/02 03:49:51;;;;;;;9.48;1.80;;;;;;;18.63;100.00;99073.50;5060531;28;20452;-68
2023/07/02 03:52:16;;;;;;;9.60;1.80;;;;;;;18.93;100.00;99077.69;5044018;28;20043;-68
2023/07/02 03:54:42;;;;;;;6.97;1.95;;;;;;;19.14;100.00;99078.19;5060872;28;20029;-68
2023/07/02 03:57:07;;;;;;;8.65;2.10;;;;;;;19.24;100.00;99075.31;5060324;28;20033;-68
2023/07/02 03:59:34;;;;;;;7.63;1.50;;;;;;;18.96;100.00;99081.75;5057600;28;20103;-68
2023/07/02 04:02:00;;;;;;;14.75;2.42;;;;;;;18.86;100.00;99080.00;5063871;28;20475;-68
2023/07/02 04:04:25;;;;;;;6.95;1.50;;;;;;;18.65;100.00;99082.19;5067628;28;20036;-70
2023/07/02 04:06:50;;;;;;;9.25;2.03;;;;;;;18.58;100.00;99086.41;5045257;28;20033;-68
2023/07/02 04:09:18;;;;;;;9.73;2.53;;;;;;;18.58;100.00;99089.94;5060497;28;20116;-68
2023/07/02 04:11:43;;;;;;;11.40;2.33;;;;;;;18.70;100.00;99089.47;5043368;28;20025;-68
2023/07/02 04:14:09;;;;;;;10.45;2.42;;;;;;;18.61;100.00;99083.88;5043333;28;20036;-68
2023/07/02 04:16:34;;;;;;;14.68;2.65;;;;;;;18.60;100.00;99090.41;5059685;28;20036;-68
2023/07/02 04:19:00;;;;;;;13.75;2.63;;;;;;;18.71;100.00;99100.09;5043354;28;20044;-68
2023/07/02 04:21:25;;;;;;;14.30;3.03;;;;;;;18.70;100.00;99095.72;5027004;28;20071;-68
2023/07/02 04:23:51;;;;;;;11.43;2.35;;;;;;;18.65;100.00;99097.72;5061591;28;20035;-68
2023/07/02 04:26:16;;;;;;;16.77;3.00;;;;;;;18.60;100.00;99086.88;5061098;28;20041;-68
2023/07/02 04:28:41;;;;;;;18.70;3.30;;;;;;;18.46;100.00;99084.91;5059792;28;20044;-68
2023/07/02 04:31:07;;;;;;;11.18;3.08;;;;;;;18.75;99.81;99097.63;5059681;28;20456;-68
2023/07/02 04:33:35;;;;;;;15.48;3.03;;;;;;;19.48;94.39;99098.91;5043175;28;20135;-68
2023/07/02 04:36:02;;;;;;;17.50;3.35;;;;;;;19.32;95.64;99098.34;5059233;28;20025;-68
2023/07/02 04:38:28;;;;;;;13.43;3.08;;;;;;;19.23;93.98;99095.47;5057859;28;20041;-68
2023/07/02 04:40:53;;;;;;;13.23;2.63;;;;;;;18.89;94.54;99095.75;5057615;28;20103;-68
2023/07/02 04:43:19;;;;;;;12.48;3.05;;;;;;;18.92;92.26;99087.00;5055538;28;20416;-68
2023/07/02 04:45:45;;;;;;;14.30;2.95;;;;;;;19.38;88.50;99090.91;5042621;28;20387;-68
2023/07/02 04:48:10;;;;;;;14.18;3.38;;;;;;;19.92;85.60;99109.28;5042617;28;20079;-67
2023/07/02 04:50:36;;;;;;;17.55;4.07;;;;;;;20.45;80.56;99096.22;5042228;28;20033;-68
2023/07/02 04:53:01;;;;;;;11.98;3.17;;;;;;;20.43;77.63;99110.22;5060442;28;20025;-68
2023/07/02 04:55:27;;;;;;;15.60;3.40;;;;;;;21.33;73.76;99110.34;5058282;28;20025;-68
2023/07/02 04:57:52;;;;;;;15.00;3.63;;;;;;;21.17;73.03;99107.19;5056836;28;20025;-68
2023/07/02 05:00:18;;;;;;;15.68;3.22;;;;;;;21.36;70.91;99107.03;5063296;28;20406;-71
2023/07/02 05:02:44;;;;;;;13.30;3.05;;;;;;;21.17;69.83;99109.13;5064601;28;20491;-68
2023/07/02 05:05:09;;;;;;;15.07;3.28;;;;;;;21.35;68.58;99088.97;5060156;28;20033;-68
2023/07/02 05:07:35;;;;;;;16.20;3.72;;;;;;;21.95;67.37;99107.66;5059681;28;20024;-68
2023/07/02 05:10:00;;;;;;;8.60;2.00;;;;;;;21.29;67.19;99101.97;5041913;28;20029;-68
2023/07/02 05:12:26;;;;;;;19.52;3.95;;;;;;;21.67;67.39;99100.75;5059457;28;20553;-69
2023/07/02 05:14:51;;;;;;;12.10;2.75;;;;;;;21.61;67.15;99107.47;5041971;28;20032;-68
2023/07/02 05:17:17;;;;;;;17.33;3.22;;;;;;;21.27;67.95;99108.88;5041667;28;20029;-68
2023/07/02 05:19:43;;;;;;;15.77;3.40;;;;;;;21.23;69.28;99113.34;5059727;28;20044;-68
2023/07/02 05:22:10;;;;;;;12.77;3.42;;;;;;;21.20;67.93;99106.56;5059284;28;20025;-68
2023/07/02 05:24:35;;;;;;;13.27;3.20;;;;;;;21.30;67.33;99119.19;5041040;28;20025;-68
2023/07/02 05:27:01;;;;;;;15.90;3.40;;;;;;;21.09;68.70;99119.69;5059872;28;20044;-68
2023/07/02 05:29:26;;;;;;;15.15;3.78;;;;;;;21.01;69.46;99117.66;5041218;28;20500;-68
2023/07/02 05:31:51;;;;;;;15.90;3.25;;;;;;;20.71;70.70;99121.09;5042295;28;20503;-69
2023/07/02 05:34:17;;;;;;;18.08;3.97;;;;;;;20.41;72.03;99123.34;5060339;28;20084;-68
2023/07/02 05:36:42;;;;;;;17.45;3.58;;;;;;;20.25;73.83;99095.53;5060540;28;20017;-68
2023/07/02 05:39:08;;;;;;;16.05;4.25;;;;;;;20.41;74.61;99121.44;5060202;28;20021;-71
2023/07/02 05:41:33;;;;;;;16.83;4.15;;;;;;;20.58;74.75;99117.28;5060803;28;20029;-70
2023/07/02 05:44:02;;;;;;;15.82;3.50;;;;;;;20.85;74.27;99111.75;5059762;28;20419;-70
2023/07/02 05:46:27;;;;;;;19.58;4.03;;;;;;;20.43;75.52;99118.41;5057886;28;20029;-71
2023/07/02 05:48:55;;;;;;;17.85;3.63;;;;;;;20.05;76.23;99107.69;5059139;28;20029;-69
2023/07/02 05:51:22;;;;;;;16.48;4.20;;;;;;;19.89;77.24;99114.56;5059725;28;20086;-72
2023/07/02 05:53:47;;;;;;;14.80;3.40;;;;;;;19.81;77.94;99123.44;5057694;28;20029;-72
2023/07/02 05:56:13;;;;;;;15.93;3.13;;;;;;;19.73;78.55;99118.66;5038712;28;20021;-71
2023/07/02 05:58:38;;;;;;;14.80;3.58;;;;;;;19.68;78.57;99119.59;5040757;28;20068;-72
2023/07/02 06:01:05;;;;;;;15.07;3.45;;;;;;;19.56;79.38;99119.22;5059983;28;20033;-72
2023/07/02 06:03:31;;;;;;;21.17;4.28;;;;;;;19.42;79.42;99125.44;5041765;28;20091;-71
2023/07/02 06:05:56;;;;;;;13.18;3.33;;;;;;;19.44;77.95;99122.44;5057351;28;20037;-72
2023/07/02 06:08:22;;;;;;;13.02;2.83;;;;;;;19.39;77.14;99106.13;5052306;28;20074;-73
2023/07/02 06:10:48;;;;;;;16.27;3.10;;;;;;;19.29;77.79;99106.31;5057694;28;20024;-72
2023/07/02 06:13:14;;;;;;;14.23;3.30;;;;;;;19.45;77.89;99124.03;5041308;28;20515;-71
2023/07/02 06:15:39;;;;;;;16.05;3.47;;;;;;;19.52;78.42;99120.94;5039338;28;20033;-70
2023/07/02 06:18:05;;;;;;;12.40;3.42;;;;;;;19.49;79.41;99127.78;5057847;28;20032;-70
2023/07/02 06:20:30;;;;;;;12.77;3.20;;;;;;;19.48;79.94;99116.06;5057546;28;20439;-69
2023/07/02 06:22:56;;;;;;;16.63;3.35;;;;;;;19.60;79.69;99120.22;5056254;28;20029;-69
2023/07/02 06:25:21;;;;;;;12.93;3.25;;;;;;;19.63;79.57;99123.19;5057297;28;20067;-69
2023/07/02 06:27:47;;;;;;;17.98;3.65;;;;;;;19.68;79.61;99123.13;5024587;28;20087;-69
2023/07/02 06:30:12;;;;;;;10.68;3.03;;;;;;;19.62;78.94;99126.22;5037718;28;20056;-69
2023/07/02 06:32:38;;;;;;;19.20;3.53;;;;;;;19.85;78.12;99116.28;5021728;28;20033;-69
2023/07/02 06:35:05;;;;;;;12.55;3.33;;;;;;;19.96;77.79;99120.41;5022500;28;20030;-69
2023/07/02 06:37:31;;;;;;;17.77;4.10;;;;;;;20.13;77.12;99120.66;5022253;28;20029;-69
2023/07/02 06:39:57;;;;;;;16.25;3.58;;;;;;;20.31;76.51;99121.63;5039582;28;20087;-69
2023/07/02 06:42:23;;;;;;;18.48;3.60;;;;;;;20.30;76.38;99124.69;5021801;28;20033;-69
2023/07/02 06:44:48;;;;;;;14.45;2.97;;;;;;;20.33;76.26;99121.31;5020434;28;20709;-69
2023/07/02 06:47:14;;;;;;;11.32;3.00;;;;;;;20.12;75.52;99124.47;5034394;28;20091;-68
2023/07/02 06:49:39;;;;;;;17.70;3.25;;;;;;;20.25;75.12;99132.97;5032742;28;20484;-69
2023/07/02 06:52:05;;;;;;;16.63;3.38;;;;;;;20.38;75.09;99134.88;5019227;28;20029;-69
2023/07/02 06:54:30;;;;;;;16.38;3.38;;;;;;;20.21;75.05;99129.25;5018872;28;20159;-70
2023/07/02 06:56:56;;;;;;;12.23;3.25;;;;;;;20.38;75.00;99129.44;5018064;28;20128;-69
2023/07/02 06:59:22;;;;;;;14.93;3.03;;;;;;;20.53;74.73;99126.41;5035312;28;20076;-71
2023/07/02 07:01:49;;;;;;;14.30;3.53;;;;;;;20.38;75.36;99138.44;5041509;28;20029;-69
2023/07/02 07:04:15;;;;;;;21.05;4.25;;;;;;;20.46;75.45;99138.81;5044851;28;20097;-71
2023/07/02 07:06:41;;;;;;;19.92;4.18;;;;;;;20.53;75.50;99141.97;5038662;28;20388;-69
2023/07/02 07:09:06;;;;;;;11.05;2.90;;;;;;;20.50;74.60;99145.31;5038724;28;20045;-69
2023/07/02 07:11:32;;;;;;;12.20;2.88;;;;;;;20.41;73.63;99139.75;5022172;28;20063;-70
2023/07/02 07:13:57;;;;;;;20.40;3.08;;;;;;;20.49;73.95;99143.69;5040922;28;20036;-68
2023/07/02 07:16:23;;;;;;;24.90;3.40;;;;;;;20.76;74.20;99140.94;5021367;28;20065;-69
2023/07/02 07:18:48;;;;;;;14.55;3.25;;;;;;;20.85;74.37;99141.00;5039743;28;20537;-68
2023/07/02 07:21:14;;;;;;;16.08;4.20;;;;;;;20.85;74.17;99143.75;5039609;28;20124;-69
2023/07/02 07:23:40;;;;;;;15.75;3.22;;;;;;;20.78;74.68;99146.91;5021745;28;20396;-69
2023/07/02 07:26:06;;;;;;;26.05;3.90;;;;;;;20.68;74.41;99124.47;5022759;28;20396;-69
2023/07/02 07:28:31;;;;;;;17.45;3.42;;;;;;;20.78;73.76;99152.38;5022560;28;20048;-69
2023/07/02 07:30:57;;;;;;;13.25;3.05;;;;;;;20.78;73.30;99154.28;5039775;28;20025;-69
2023/07/02 07:33:23;;;;;;;19.27;3.50;;;;;;;20.65;73.60;99145.00;5036717;28;20095;-68
2023/07/02 07:35:48;;;;;;;14.60;3.10;;;;;;;20.75;73.75;99157.63;5037917;28;20036;-69
2023/07/02 07:38:14;;;;;;;13.48;3.53;;;;;;;20.80;73.65;99149.34;5021675;28;20021;-68
2023/07/02 07:40:40;;;;;;;8.57;2.95;;;;;;;20.97;73.19;99144.03;5021855;28;20030;-68
2023/07/02 07:43:05;;;;;;;12.73;3.25;;;;;;;21.32;73.09;99139.66;5005846;28;20041;-69
2023/07/02 07:45:31;;;;;;;12.05;2.92;;;;;;;21.24;72.45;99140.38;5023906;28;20059;-69
2023/07/02 07:47:56;;;;;;;14.38;3.28;;;;;;;21.09;73.03;99130.63;5023508;28;20154;-68
2023/07/02 07:50:23;;;;;;;13.05;3.15;;;;;;;21.09;72.37;99147.03;5023097;28;20036;-69
2023/07/02 07:52:48;;;;;;;14.18;3.58;;;;;;;21.10;72.76;99142.38;5024945;28;20035;-68
2023/07/02 07:55:14;;;;;;;14.75;2.92;;;;;;;21.03;72.44;99142.00;5023713;28;20034;-69
2023/07/02 07:57:39;;;;;;;13.30;3.10;;;;;;;20.67;73.27;99133.78;5039866;28;20029;-69
2023/07/02 08:00:12;;;;;;;13.90;3.00;;;;;;;20.28;75.13;99137.84;5022701;28;20499;-68
2023/07/02 08:02:38;;;;;;;11.30;2.75;;;;;;;19.85;76.77;99138.09;5007600;28;20030;-68
2023/07/02 08:05:04;;;;;;;17.42;3.25;;;;;;;19.64;79.84;99149.41;5041805;28;20112;-68
2023/07/02 08:07:31;;;;;;;11.20;2.80;;;;;;;19.39;82.21;99147.06;5041815;28;20415;-69
2023/07/02 08:09:56;;;;;;;16.70;3.78;;;;;;;19.41;83.61;99147.56;5041957;28;20021;-69
2023/07/02 08:12:22;;;;;;;13.20;3.20;;;;;;;19.60;84.46;99126.53;5042288;28;20388;-69
2023/07/02 08:14:49;;;;;;;11.68;3.05;;;;;;;19.69;86.08;99138.38;5023971;28;20030;-69
2023/07/02 08:17:14;;;;;;;10.32;2.88;;;;;;;19.82;86.02;99147.69;5041443;28;20473;-69
2023/07/02 08:19:40;;;;;;;9.15;2.25;;;;;;;19.97;84.36;99143.91;5022030;28;20112;-70
2023/07/02 08:22:05;;;;;;;8.65;2.55;;;;;;;19.88;82.49;99151.16;5053103;28;20045;-69
2023/07/02 08:24:31;;;;;;;11.55;2.53;;;;;;;20.12;81.39;99142.78;5041150;28;20052;-69
2023/07/02 08:26:57;;;;;;;10.20;2.88;;;;;;;20.26;80.21;99148.25;5042934;28;20035;-70
2023/07/02 08:29:23;;;;;;;12.00;2.85;;;;;;;20.32;80.81;99152.50;5044873;28;20086;-70
2023/07/02 08:31:48;;;;;;;11.18;2.65;;;;;;;20.26;79.87;99131.84;5045959;28;20056;-70
2023/07/02 08:34:14;;;;;;;12.60;2.90;;;;;;;20.69;79.23;99134.25;5044881;28;20116;-70
2023/07/02 08:36:40;;;;;;;11.90;3.00;;;;;;;20.72;78.33;99150.84;5063082;28;20029;-70
2023/07/02 08:39:05;;;;;;;12.80;2.63;;;;;;;20.91;76.78;99142.50;5060067;28;20108;-69
2023/07/02 08:41:42;;;;;;;10.05;2.60;;;;;;;20.85;74.85;99155.47;5040299;28;20458;-70
2023/07/02 08:44:09;;;;;;;8.77;2.88;;;;;;;20.93;76.13;99158.63;5025815;28;20061;-70
2023/07/02 08:46:35;;;;;;;11.73;2.90;;;;;;;20.71;75.29;99143.78;5041867;28;20035;-70
2023/07/02 08:49:00;;;;;;;9.25;2.67;;;;;;;20.57;75.47;99152.00;5042894;28;20097;-70
2023/07/02 08:51:25;;;;;;;10.35;2.72;;;;;;;20.79;73.91;99151.25;5061409;28;20059;-70
2023/07/02 08:53:51;;;;;;;14.60;2.53;;;;;;;20.89;74.51;99155.69;5061532;28;20041;-70
2023/07/02 08:56:16;;;;;;;9.98;2.35;;;;;;;20.58;75.23;99158.28;5060468;28;20028;-70
2023/07/02 08:58:42;;;;;;;10.13;2.75;;;;;;;20.52;74.15;99157.56;5058642;28;20024;-69
2023/07/02 09:01:12;;;;;;;8.98;2.53;;;;;;;20.52;73.82;99157.56;5045094;28;20044;-71
2023/07/02 09:03:39;;;;;;;8.52;2.28;;;;;;;20.78;72.27;99159.75;5060215;28;20033;-70
2023/07/02 09:06:08;;;;;;;9.60;2.42;;;;;;;21.05;71.47;99154.22;5061895;28;20421;-70
2023/07/02 09:08:34;;;;;;;10.70;2.42;;;;;;;21.00;70.02;99161.75;5044942;28;20076;-70
2023/07/02 09:11:08;;;;;;;9.20;2.47;;;;;;;21.01;70.40;99155.16;5062338;28;20031;-70
2023/07/02 09:13:50;;;;;;;10.32;2.22;;;;;;;21.12;69.65;99151.06;5043083;28;20032;-70
2023/07/02 09:16:29;;;;;;;10.77;2.90;;;;;;;21.29;69.53;99161.31;5061696;28;20039;-70
2023/07/02 09:18:58;;;;;;;11.82;3.10;;;;;;;21.44;69.90;99158.25;5042604;28;20044;-70
2023/07/02 09:21:26;;;;;;;7.07;2.15;;;;;;;21.47;69.69;99163.09;5044312;28;20033;-70
2023/07/02 09:23:51;;;;;;;8.68;2.00;;;;;;;21.64;68.77;99159.66;5062781;28;20024;-70
2023/07/02 09:26:23;;;;;;;10.77;3.10;;;;;;;21.94;67.29;99158.06;5061796;28;20040;-69
2023/07/02 09:28:49;;;;;;;8.02;2.03;;;;;;;22.12;66.35;99153.50;5061864;28;20395;-69
2023/07/02 09:31:15;;;;;;;9.52;1.92;;;;;;;21.99;65.70;99162.63;5043933;28;20029;-69
2023/07/02 09:33:40;;;;;;;10.30;2.17;;;;;;;21.93;65.93;99156.47;5026423;28;20056;-70
2023/07/02 09:36:06;;;;;;;9.93;2.45;;;;;;;21.95;66.29;99146.00;5043414;28;20508;-69
2023/07/02 09:38:31;;;;;;;11.75;2.63;;;;;;;22.08;67.39;99162.63;5042950;28;20040;-69
2023/07/02 09:40:57;;;;;;;8.05;2.45;;;;;;;22.18;67.38;99151.44;5056222;28;20148;-69
2023/07/02 09:43:24;;;;;;;4.80;2.08;;;;;;;22.14;66.62;99153.97;5051648;28;20425;-69
2023/07/02 09:45:51;;;;;;;7.43;2.20;;;;;;;22.23;66.68;99165.00;5039585;28;20037;-69
2023/07/02 09:48:17;;;;;;;4.93;1.88;;;;;;;21.74;63.51;99144.91;5035983;28;20074;-70
2023/07/02 09:50:47;;;;;;;8.02;2.33;;;;;;;21.65;62.03;99164.00;5037793;28;20076;-69
2023/07/02 09:53:13;;;;;;;7.93;1.90;;;;;;;21.76;62.63;99164.59;5025598;28;20058;-69
2023/07/02 09:55:41;;;;;;;5.00;1.73;;;;;;;21.74;62.47;99166.81;5038500;28;20140;-69
2023/07/02 09:58:07;;;;;;;6.40;1.73;;;;;;;21.68;62.45;99160.66;5030555;28;20041;-69
2023/07/02 10:00:33;;;;;;;9.57;1.85;;;;;;;21.77;63.19;99150.56;5035786;28;20449;-69
2023/07/02 10:03:00;;;;;;;6.25;2.22;;;;;;;22.25;63.48;99169.03;5026677;28;20044;-69
2023/07/02 10:05:31;;;;;;;7.18;1.88;;;;;;;22.18;63.17;99170.59;5054612;28;20028;-69
2023/07/02 10:07:57;;;;;;;7.22;1.85;;;;;;;21.86;63.45;99169.78;5053608;28;20104;-69
2023/07/02 10:10:31;;;;;;;10.48;1.80;;;;;;;21.89;63.86;99168.38;5037843;28;20040;-69
2023/07/02 10:12:57;;;;;;;5.18;1.65;;;;;;;21.65;64.37;99155.81;5039000;28;20037;-70
2023/07/02 10:15:31;;;;;;;3.95;1.17;;;;;;;21.30;64.72;99141.88;5038441;28;20028;-68
2023/07/02 10:18:00;;;;;;;6.53;2.00;;;;;;;21.74;65.02;99167.63;5039171;28;20029;-70
2023/07/02 10:20:37;;;;;;;7.15;1.83;;;;;;;21.64;64.05;99162.41;5057008;28;20029;-69
2023/07/02 10:23:05;;;;;;;8.43;2.50;;;;;;;21.88;64.42;99173.00;5038902;28;20043;-70
2023/07/02 10:25:34;;;;;;;7.45;2.30;;;;;;;21.79;63.48;99172.19;5015825;28;20037;-70
2023/07/02 10:28:01;;;;;;;7.78;2.03;;;;;;;21.83;62.96;99145.78;5006583;28;20038;-73
2023/07/02 10:30:37;;;;;;;7.90;1.90;;;;;;;22.00;63.80;99162.28;5005062;28;20022;-71
2023/07/02 10:33:13;;;;;;;9.85;2.30;;;;;;;22.17;63.36;99169.00;5016047;28;20038;-71
2023/07/02 10:35:44;;;;;;;6.60;1.80;;;;;;;22.31;63.01;99164.22;4998976;28;20049;-72
2023/07/02 10:38:23;;;;;;;6.50;1.92;;;;;;;22.20;63.11;99160.16;5015741;28;20108;-71
2023/07/02 10:40:57;;;;;;;11.20;1.80;;;;;;;22.58;63.04;99174.13;4996312;28;20372;-71
2023/07/02 10:43:30;;;;;;;7.80;1.92;;;;;;;22.78;62.41;99172.75;5016530;28;20045;-71
2023/07/02 10:45:56;;;;;;;6.50;2.08;;;;;;;22.89;60.92;99174.03;5033583;28;20030;-70
2023/07/02 10:48:21;;;;;;;6.15;1.90;;;;;;;22.96;60.84;99177.13;5034240;28;20022;-71
2023/07/02 10:50:48;;;;;;;8.20;1.88;;;;;;;22.93;61.52;99168.75;5017136;28;20050;-71
2023/07/02 10:53:16;;;;;;;7.63;1.75;;;;;;;23.09;60.02;99158.91;5018629;28;20056;-69
2023/07/02 10:55:42;;;;;;;8.30;2.10;;;;;;;23.08;60.12;99153.72;5032355;28;20056;-70
2023/07/02 10:58:28;;;;;;;4.53;1.60;;;;;;;22.79;60.25;99160.63;5014125;28;20029;-72
2023/07/02 11:00:54;;;;;;;9.38;2.67;;;;;;;22.42;61.64;99153.78;4974311;28;20039;-71
2023/07/02 11:03:21;;;;;;;5.78;1.90;;;;;;;22.00;65.07;99158.75;4990012;28;20034;-72
2023/07/02 11:05:48;;;;;;;7.47;2.10;;;;;;;21.54;69.06;99168.13;4973613;28;20038;-70
2023/07/02 11:08:13;;;;;;;9.63;2.63;;;;;;;20.95;72.99;99175.53;4989915;28;20046;-69
2023/07/02 11:10:39;;;;;;;12.35;2.45;;;;;;;20.37;76.84;99201.56;4989998;28;20051;-71
2023/07/02 11:13:15;;;;;;;13.20;3.03;;;;;;;19.78;80.21;99208.66;4975289;28;20042;-72
2023/07/02 11:15:45;;;;;;;15.98;3.17;;;;;;;19.39;82.95;99191.50;4975508;28;20048;-70
2023/07/02 11:18:15;;;;;;;12.57;2.45;;;;;;;19.09;83.30;99183.78;4997829;28;20037;-70
2023/07/02 11:20:43;;;;;;;9.13;2.00;;;;;;;18.94;84.15;99187.53;4998395;28;20093;-69